Lockport, NY

7:15 PM EDT on October 25, 2014 (GMT -0400)
Niagara Falls International | Change Station
CLOSE
Current Station
Airport
Location: Niagara Falls,
Elevation: 584 ft
Nearby Weather Stations

Elev 584 ft 43.11 °N, 78.94 °W | Updated 1 hour ago

Partly Cloudy
Partly Cloudy
58 °F
Feels Like 58 °F
N
12
Wind Variable Wind from West

Today
High -- | Low -- °F
--% Chance of Precip.
Yesterday
High -- | Low -- °F
Precip. -- in
7:40 AM 6:16 PM
Waxing Crescent, 5% visible
Pressure 29.64 in
Visibility 10.0 miles
Clouds Few 2300 ft
Few 3200 ft
Few 10000 ft
Dew Point 46 °F
Humidity 65%
Rainfall 0.00 in
Snow Depth Not available.
UV 0 out of 12
Pollen 1.60 out of 12
Ozone Good
PM2.5 Moderate
Flu Activity Sporadic
METAR KIAG 252153Z 26010KT 10SM FEW023 FEW032 FEW100 14/08 A2963 RMK AO2 SLP036 T01440078

More Conditions Fewer Conditions

Pressure 29.64 in
Visibility 10.0 miles
Clouds Few 2300 ft
Few 3200 ft
Few 10000 ft
Dew Point 46 °F
Humidity 65%
Rainfall 0.00 in
Snow Depth Not available.
UV 0 out of 12
Pollen 1.60 out of 12
Ozone Good
PM2.5 Moderate
Flu Activity Sporadic
METAR KIAG 252153Z 26010KT 10SM FEW023 FEW032 FEW100 14/08 A2963 RMK AO2 SLP036 T01440078

More Conditions Fewer Conditions

10-Day Weather Forecast

Almanac

Astronomy

Oct. 25, 2014 Rise Set
Actual Time 7:40 AM EDT 6:16 PM EDT
Civil Twilight 7:11 AM EDT 6:45 PM EDT
Nautical Twilight 6:38 AM EDT 7:18 PM EDT
Astronomical Twilight 6:05 AM EDT 7:51 PM EDT
Moon 9:19 AM EDT 7:35 PM EDT
Length of Visible Light 11h 33m
Length of Day
10h 35m
Tomorrow will be 2m 42s shorter.
Waxing Crescent, 5% of the Moon is Illuminated
Today
Waxing Crescent
Oct 30
First Quarter
Nov 6
Full
Nov 14
Last Quarter
Nov 22
New

Today's Extremes

State Highs State Lows

Community

WunderPhotos

Upload Photos

1,765,024 photos uploaded!

Nearby

Air Quality

  Air Quality AQ Index Pollutant
Yesterday Good
PM2.5
Yesterday Good
OZONE
Current Moderate
PM2.5
Current Good
OZONE
Saturday Good
PM2.5
Sunday Good
PM2.5
Monday Good
PM2.5

Snow Depth

Station Depth Elevation
No new snow has been reported.

Earthquake Activity

City Distance Mag. Time & Date
No recent earthquake activity has been reported nearby.
Minimum magnitude displayed is 2.5.

Coastal Water Temperatures

Place Temperature
Buffalo, NY 57.9 °F

Nearby Weather Stations